Time;durP1;ratioP1;P1;durP2;ratioP2;P2;SDS_P1;SDS_P2;PMS_P1;PMS_P2;Temp;Humidity;BMP_temperature;BMP_pressure;BME280_temperature;BME280_humidity;BME280_pressure;Samples;Min_cycle;Max_cycle;Signal;HPM_P1;HPM_P2
2023/06/30 00:00:34;;;;;;;4.50;3.88;;;16.90;99.90;;;;;;5027094;28;20112;-85
2023/06/30 00:02:59;;;;;;;7.80;4.00;;;17.00;99.90;;;;;;5015593;28;20037;-85
2023/06/30 00:05:26;;;;;;;6.40;4.22;;;17.00;99.90;;;;;;5012937;28;20018;-85
2023/06/30 00:07:54;;;;;;;5.50;4.68;;;17.00;99.90;;;;;;5017842;28;20544;-85
2023/06/30 00:10:23;;;;;;;11.70;4.63;;;17.00;99.90;;;;;;5011505;28;20026;-83
2023/06/30 00:12:48;;;;;;;6.43;4.13;;;16.90;99.90;;;;;;5012397;28;20234;-85
2023/06/30 00:15:14;;;;;;;6.95;4.10;;;16.90;99.90;;;;;;5005950;28;20034;-86
2023/06/30 00:17:39;;;;;;;9.60;4.38;;;17.00;99.90;;;;;;5008634;28;20068;-85
2023/06/30 00:20:06;;;;;;;5.80;4.22;;;17.00;99.90;;;;;;5007067;28;20022;-86
2023/06/30 00:22:35;;;;;;;7.05;4.10;;;17.00;99.90;;;;;;5009607;28;20367;-85
2023/06/30 00:25:03;;;;;;;11.93;4.78;;;17.00;99.90;;;;;;5010201;28;20037;-86
2023/06/30 00:27:29;;;;;;;5.43;4.07;;;17.00;99.90;;;;;;5012603;28;20085;-87
2023/06/30 00:29:54;;;;;;;11.80;4.30;;;17.00;99.90;;;;;;5012508;28;20084;-86
2023/06/30 00:32:20;;;;;;;7.40;4.68;;;17.00;99.90;;;;;;5012988;28;20034;-87
2023/06/30 00:34:46;;;;;;;5.38;4.63;;;16.90;99.90;;;;;;5012063;28;20045;-87
2023/06/30 00:37:14;;;;;;;5.47;4.00;;;16.90;99.90;;;;;;5011470;28;20034;-85
2023/06/30 00:39:40;;;;;;;6.50;4.32;;;16.80;99.90;;;;;;5012229;28;20026;-85
2023/06/30 00:42:06;;;;;;;9.68;4.85;;;16.80;99.90;;;;;;5012903;28;20509;-85
2023/06/30 00:44:31;;;;;;;8.90;4.35;;;16.90;99.90;;;;;;5014969;28;20100;-85
2023/06/30 00:47:00;;;;;;;5.38;4.13;;;16.90;99.90;;;;;;5024346;28;20664;-84
2023/06/30 00:49:26;;;;;;;8.30;4.40;;;17.00;99.90;;;;;;5022893;28;20010;-83
2023/06/30 00:51:52;;;;;;;10.20;4.15;;;17.00;99.90;;;;;;5031492;28;20021;-85
2023/06/30 00:54:21;;;;;;;11.35;4.50;;;17.00;99.90;;;;;;5017506;28;20025;-85
2023/06/30 00:56:46;;;;;;;7.13;4.05;;;16.90;99.90;;;;;;5006241;28;20034;-85
2023/06/30 00:59:14;;;;;;;8.27;3.85;;;16.80;99.90;;;;;;5009120;28;20040;-85
2023/06/30 01:01:53;;;;;;;6.40;4.18;;;16.90;99.90;;;;;;5028644;28;20362;-85
2023/06/30 01:04:31;;;;;;;7.45;3.85;;;16.90;99.90;;;;;;5015691;28;20296;-84
2023/06/30 01:07:07;;;;;;;8.63;4.10;;;17.00;99.90;;;;;;5010467;28;20038;-86
2023/06/30 01:09:36;;;;;;;6.50;3.97;;;16.90;99.90;;;;;;5013591;28;20097;-85
2023/06/30 01:12:02;;;;;;;7.43;4.57;;;16.90;99.90;;;;;;5008546;28;20033;-85
2023/06/30 01:14:30;;;;;;;8.02;4.20;;;17.00;99.90;;;;;;5015863;28;20112;-86
2023/06/30 01:16:57;;;;;;;10.85;4.55;;;17.00;99.90;;;;;;5008673;28;20160;-86
2023/06/30 01:19:44;;;;;;;9.98;4.13;;;16.90;99.90;;;;;;5010786;28;20430;-86
2023/06/30 01:22:27;;;;;;;6.32;4.60;;;16.90;99.90;;;;;;5012670;28;20033;-86
2023/06/30 01:25:08;;;;;;;12.20;3.70;;;17.00;99.90;;;;;;5013388;28;20022;-86
2023/06/30 01:27:36;;;;;;;8.65;4.07;;;17.00;99.90;;;;;;5006503;28;20280;-86
2023/06/30 01:30:05;;;;;;;15.50;4.07;;;17.00;99.90;;;;;;5008527;28;20067;-86
2023/06/30 01:32:31;;;;;;;5.90;3.78;;;17.00;99.90;;;;;;5011804;28;20117;-86
2023/06/30 01:34:57;;;;;;;10.15;4.10;;;16.90;99.90;;;;;;5007512;28;20029;-86
2023/06/30 01:37:23;;;;;;;8.30;4.15;;;16.90;99.90;;;;;;5007828;28;20029;-86
2023/06/30 01:39:48;;;;;;;12.73;4.10;;;16.90;99.90;;;;;;5012299;28;20026;-86
2023/06/30 01:42:17;;;;;;;6.32;3.70;;;16.90;99.90;;;;;;5010766;28;20164;-86
2023/06/30 01:44:44;;;;;;;10.82;3.15;;;16.90;99.90;;;;;;5005702;28;20049;-84
2023/06/30 01:47:10;;;;;;;8.55;3.60;;;16.90;99.90;;;;;;5022140;28;20086;-85
2023/06/30 01:49:35;;;;;;;9.73;3.80;;;16.80;99.90;;;;;;5040534;28;20045;-86
2023/06/30 01:52:02;;;;;;;12.23;3.63;;;16.80;99.90;;;;;;5014993;28;20033;-84
2023/06/30 01:54:27;;;;;;;9.38;3.22;;;16.80;99.90;;;;;;5023867;28;20026;-86
2023/06/30 01:56:53;;;;;;;15.65;3.80;;;16.80;99.90;;;;;;5005263;28;20026;-87
2023/06/30 01:59:19;;;;;;;12.10;3.67;;;16.90;99.90;;;;;;5009392;28;20341;-87
2023/06/30 02:01:44;;;;;;;8.93;3.47;;;16.90;99.90;;;;;;5011441;28;20018;-88
2023/06/30 02:04:12;;;;;;;13.13;3.45;;;16.80;99.90;;;;;;5007103;28;20025;-89
2023/06/30 02:06:38;;;;;;;7.60;3.20;;;16.70;99.90;;;;;;5008898;28;20121;-87
2023/06/30 02:09:04;;;;;;;16.48;3.80;;;16.80;99.90;;;;;;5009974;28;20058;-88
2023/06/30 02:11:30;;;;;;;12.48;3.40;;;16.70;99.90;;;;;;5009435;28;20072;-88
2023/06/30 02:13:55;;;;;;;14.27;3.95;;;16.80;99.90;;;;;;5015347;28;20030;-89
2023/06/30 02:16:21;;;;;;;16.63;3.72;;;16.80;99.90;;;;;;5012778;28;20046;-88
2023/06/30 02:18:46;;;;;;;9.77;3.50;;;16.70;99.90;;;;;;5015279;28;20079;-88
2023/06/30 02:21:12;;;;;;;13.05;3.42;;;16.60;99.90;;;;;;5013908;28;20497;-87
2023/06/30 02:23:37;;;;;;;17.17;3.53;;;16.70;99.90;;;;;;5013927;28;20030;-87
2023/06/30 02:26:03;;;;;;;7.57;3.40;;;16.60;99.90;;;;;;5029484;28;20033;-87
2023/06/30 02:28:29;;;;;;;10.65;3.10;;;16.60;99.90;;;;;;5017399;28;20083;-88
2023/06/30 02:30:55;;;;;;;5.07;3.40;;;16.60;99.90;;;;;;5015886;28;20052;-87
2023/06/30 02:33:21;;;;;;;13.45;3.85;;;16.70;99.90;;;;;;5013974;28;20037;-89
2023/06/30 02:35:46;;;;;;;6.88;3.20;;;16.60;99.90;;;;;;5013231;28;20034;-88
2023/06/30 02:38:12;;;;;;;13.52;3.10;;;16.70;99.90;;;;;;5013952;28;20032;-89
2023/06/30 02:40:38;;;;;;;13.70;3.60;;;16.60;99.90;;;;;;5012860;28;20026;-88
2023/06/30 02:43:06;;;;;;;9.75;4.43;;;16.60;99.90;;;;;;5011907;28;20769;-88
2023/06/30 02:45:32;;;;;;;8.50;2.95;;;16.60;99.90;;;;;;5013857;28;20493;-88
2023/06/30 02:47:57;;;;;;;6.15;3.22;;;16.50;99.90;;;;;;5017994;28;20178;-87
2023/06/30 02:50:29;;;;;;;11.80;2.58;;;16.50;99.90;;;;;;5013646;28;20026;-90
2023/06/30 02:52:55;;;;;;;14.50;3.10;;;16.50;99.90;;;;;;5012929;28;20072;-88
2023/06/30 02:55:21;;;;;;;14.02;3.10;;;16.50;99.90;;;;;;5021420;28;20014;-86
2023/06/30 02:57:47;;;;;;;9.40;3.58;;;16.40;99.90;;;;;;5037050;28;20062;-86
2023/06/30 03:00:13;;;;;;;7.45;2.97;;;16.40;99.90;;;;;;5032757;28;20113;-88
2023/06/30 03:02:39;;;;;;;10.60;3.13;;;16.40;99.90;;;;;;5021954;28;20477;-87
2023/06/30 03:05:06;;;;;;;6.60;3.03;;;16.40;99.90;;;;;;5029419;28;20041;-87
2023/06/30 03:07:32;;;;;;;17.15;3.58;;;16.40;99.90;;;;;;5023136;28;20053;-88
2023/06/30 03:09:58;;;;;;;11.52;3.70;;;16.30;99.90;;;;;;5012858;28;20033;-88
2023/06/30 03:12:24;;;;;;;10.10;2.88;;;16.20;99.90;;;;;;5032391;28;20022;-86
2023/06/30 03:14:49;;;;;;;11.80;2.70;;;16.30;99.90;;;;;;5033097;28;20045;-85
2023/06/30 03:17:15;;;;;;;10.77;3.65;;;16.20;99.90;;;;;;5033422;28;20030;-88
2023/06/30 03:19:40;;;;;;;10.45;2.45;;;16.10;99.90;;;;;;5010695;28;20113;-88
2023/06/30 03:22:06;;;;;;;12.30;2.85;;;16.10;99.90;;;;;;5014592;28;20022;-89
2023/06/30 03:24:31;;;;;;;16.88;3.42;;;16.10;99.90;;;;;;5016328;28;20030;-86
2023/06/30 03:26:57;;;;;;;12.13;3.17;;;16.10;99.90;;;;;;5015476;28;20054;-88
2023/06/30 03:29:23;;;;;;;8.65;2.85;;;16.10;99.90;;;;;;5020096;28;20056;-89
2023/06/30 03:31:48;;;;;;;9.50;2.88;;;16.10;99.90;;;;;;5015987;28;20032;-87
2023/06/30 03:34:14;;;;;;;9.45;2.83;;;16.10;99.90;;;;;;5017480;28;20056;-87
2023/06/30 03:36:42;;;;;;;10.40;2.83;;;16.10;99.90;;;;;;5013710;28;20746;-88
2023/06/30 03:39:08;;;;;;;8.80;2.55;;;16.10;99.90;;;;;;5013496;28;20064;-89
2023/06/30 03:41:34;;;;;;;6.30;3.20;;;16.00;99.90;;;;;;5018851;28;20034;-89
2023/06/30 03:43:59;;;;;;;9.43;2.92;;;16.00;99.90;;;;;;5005267;28;20256;-88
2023/06/30 03:46:25;;;;;;;13.77;2.53;;;16.00;99.90;;;;;;5010515;28;20029;-89
2023/06/30 03:48:50;;;;;;;8.15;2.70;;;16.00;99.90;;;;;;5004481;28;20494;-88
2023/06/30 03:51:16;;;;;;;3.78;2.70;;;15.90;99.90;;;;;;5011806;28;20013;-88
2023/06/30 03:53:43;;;;;;;8.63;2.35;;;16.00;99.90;;;;;;5008997;28;20029;-88
2023/06/30 03:56:11;;;;;;;11.05;2.60;;;16.00;99.90;;;;;;5013424;28;20077;-85
2023/06/30 03:58:37;;;;;;;20.13;3.47;;;15.90;99.90;;;;;;5008963;28;20033;-89
2023/06/30 04:01:02;;;;;;;9.00;2.53;;;15.90;99.90;;;;;;5012156;28;20034;-89
2023/06/30 04:03:28;;;;;;;6.35;2.47;;;15.90;99.90;;;;;;5010831;28;20026;-88
2023/06/30 04:05:53;;;;;;;10.10;2.72;;;15.90;99.90;;;;;;5014886;28;20022;-89
2023/06/30 04:08:19;;;;;;;10.73;2.75;;;15.90;99.90;;;;;;5017689;28;20041;-88
2023/06/30 04:10:45;;;;;;;5.80;2.40;;;16.00;99.90;;;;;;5022315;28;20018;-88
2023/06/30 04:13:11;;;;;;;9.82;2.60;;;16.00;99.90;;;;;;5023057;28;20029;-89
2023/06/30 04:15:36;;;;;;;8.57;2.70;;;16.10;99.90;;;;;;5011432;28;20080;-89
2023/06/30 04:18:02;;;;;;;10.73;3.15;;;16.10;99.90;;;;;;5013501;28;20548;-89
2023/06/30 04:20:28;;;;;;;4.82;2.88;;;16.10;99.90;;;;;;5011693;28;20022;-89
2023/06/30 04:22:56;;;;;;;8.45;2.65;;;16.10;99.90;;;;;;5013764;28;20071;-89
2023/06/30 04:25:22;;;;;;;13.77;2.92;;;16.10;99.90;;;;;;5021706;28;20378;-89
2023/06/30 04:27:47;;;;;;;10.02;2.53;;;16.00;99.90;;;;;;5025840;28;20061;-87
2023/06/30 04:30:13;;;;;;;11.57;2.92;;;16.00;99.90;;;;;;5029727;28;20022;-88
2023/06/30 04:32:41;;;;;;;9.63;2.55;;;16.00;99.90;;;;;;5025368;28;20532;-86
2023/06/30 04:35:07;;;;;;;12.23;3.30;;;16.10;99.90;;;;;;5020818;28;20045;-88
2023/06/30 04:37:40;;;;;;;6.85;3.00;;;16.00;99.90;;;;;;5014225;28;20021;-89
2023/06/30 04:40:09;;;;;;;10.33;2.83;;;16.00;99.90;;;;;;5010159;28;20014;-85
2023/06/30 04:42:38;;;;;;;10.65;2.45;;;16.00;99.90;;;;;;5012713;28;20334;-89
2023/06/30 04:45:05;;;;;;;8.98;3.08;;;15.90;99.90;;;;;;5014701;28;20026;-89
2023/06/30 04:47:30;;;;;;;9.23;2.47;;;15.90;99.90;;;;;;5012125;28;20034;-89
2023/06/30 04:49:56;;;;;;;4.95;2.90;;;15.90;99.90;;;;;;5014981;28;20418;-89
2023/06/30 04:52:21;;;;;;;10.48;3.28;;;15.90;99.90;;;;;;5014154;28;20074;-89
2023/06/30 04:54:49;;;;;;;13.52;2.70;;;15.90;99.90;;;;;;5014204;28;20036;-89
2023/06/30 04:57:17;;;;;;;8.10;3.10;;;15.90;99.90;;;;;;5007738;28;20030;-89
2023/06/30 04:59:43;;;;;;;18.80;3.30;;;15.90;99.90;;;;;;5015104;28;20140;-90
2023/06/30 05:02:09;;;;;;;13.90;3.40;;;15.90;99.90;;;;;;5012040;28;20109;-89
2023/06/30 05:04:34;;;;;;;10.07;2.83;;;16.00;99.90;;;;;;5027373;28;20010;-86
2023/06/30 05:07:00;;;;;;;10.80;2.50;;;16.00;99.90;;;;;;5036091;28;20022;-87
2023/06/30 05:09:25;;;;;;;10.02;2.88;;;16.00;99.90;;;;;;5022505;28;20041;-88
2023/06/30 05:11:52;;;;;;;9.77;3.15;;;16.00;99.90;;;;;;5017734;28;20057;-90
2023/06/30 05:14:18;;;;;;;12.70;2.45;;;16.10;99.90;;;;;;5008367;28;20088;-88
2023/06/30 05:16:43;;;;;;;8.38;2.20;;;16.10;99.90;;;;;;5014890;28;20021;-88
2023/06/30 05:19:09;;;;;;;10.68;2.22;;;16.00;99.90;;;;;;5013842;28;20049;-89
2023/06/30 05:21:35;;;;;;;7.22;2.25;;;16.10;99.90;;;;;;5030443;28;20085;-89
2023/06/30 05:24:00;;;;;;;10.68;3.10;;;16.00;99.90;;;;;;5016458;28;20029;-89
2023/06/30 05:26:26;;;;;;;10.88;2.20;;;16.10;99.90;;;;;;5015072;28;20378;-88
2023/06/30 05:28:51;;;;;;;5.78;2.22;;;16.10;99.90;;;;;;5017426;28;20018;-90
2023/06/30 05:31:17;;;;;;;6.90;2.72;;;16.20;99.90;;;;;;5015039;28;20112;-88
2023/06/30 05:33:43;;;;;;;15.60;3.00;;;16.30;99.90;;;;;;5015481;28;20052;-89
2023/06/30 05:36:08;;;;;;;6.93;2.15;;;16.40;99.90;;;;;;5014106;28;20017;-88
2023/06/30 05:38:34;;;;;;;11.48;2.60;;;16.40;99.90;;;;;;5007720;28;20058;-89
2023/06/30 05:40:59;;;;;;;8.85;2.45;;;16.40;99.90;;;;;;5014740;28;20442;-88
2023/06/30 05:43:25;;;;;;;6.22;2.78;;;16.40;99.90;;;;;;5013054;28;20026;-89
2023/06/30 05:45:53;;;;;;;9.70;2.90;;;16.50;99.90;;;;;;5016610;28;20026;-90
2023/06/30 05:48:19;;;;;;;10.52;2.72;;;16.50;99.90;;;;;;5017971;28;20022;-89
2023/06/30 05:50:45;;;;;;;8.55;3.10;;;16.50;99.90;;;;;;5026035;28;20021;-89
2023/06/30 05:53:13;;;;;;;8.70;2.80;;;16.60;99.90;;;;;;5035968;28;20042;-90
2023/06/30 05:55:39;;;;;;;8.23;2.85;;;16.60;99.90;;;;;;5015476;28;20018;-88
2023/06/30 05:58:04;;;;;;;10.32;2.88;;;16.70;99.90;;;;;;5019738;28;20053;-90
2023/06/30 06:00:30;;;;;;;4.57;1.92;;;16.70;99.90;;;;;;5022680;28;20080;-88
2023/06/30 06:02:55;;;;;;;8.00;2.13;;;16.80;99.90;;;;;;5018551;28;20022;-88
2023/06/30 06:05:24;;;;;;;6.10;2.17;;;16.90;99.90;;;;;;5021099;28;20505;-89
2023/06/30 06:07:49;;;;;;;10.48;2.63;;;17.00;99.90;;;;;;5036535;28;20044;-88
2023/06/30 06:10:15;;;;;;;10.60;2.38;;;17.00;99.90;;;;;;5024027;28;20394;-90
2023/06/30 06:12:41;;;;;;;9.38;2.60;;;16.90;99.90;;;;;;5022046;28;20047;-89
2023/06/30 06:15:12;;;;;;;7.82;2.13;;;16.90;99.90;;;;;;5021555;28;20029;-89
2023/06/30 06:17:38;;;;;;;7.50;1.83;;;17.10;99.90;;;;;;5018477;28;20116;-90
2023/06/30 06:20:04;;;;;;;9.57;2.70;;;17.10;99.90;;;;;;5033094;28;20121;-89
2023/06/30 06:22:29;;;;;;;4.65;1.75;;;17.20;99.90;;;;;;5049821;23;20053;-87
2023/06/30 06:24:55;;;;;;;5.35;2.00;;;17.30;99.90;;;;;;5025447;28;20026;-82
2023/06/30 06:27:20;;;;;;;8.30;3.75;;;17.40;99.90;;;;;;5009081;28;20026;-87
2023/06/30 06:29:46;;;;;;;10.35;2.15;;;17.50;99.90;;;;;;5014588;28;20021;-87
2023/06/30 06:32:14;;;;;;;4.13;1.63;;;17.60;99.90;;;;;;5012036;28;20605;-84
2023/06/30 06:34:39;;;;;;;9.20;2.13;;;17.70;99.90;;;;;;5016366;28;20037;-80
2023/06/30 06:37:22;;;;;;;5.78;1.70;;;17.70;99.90;;;;;;4996887;28;20029;-81
2023/06/30 06:39:48;;;;;;;6.05;1.77;;;17.70;99.90;;;;;;4998820;28;20022;-81
2023/06/30 06:42:19;;;;;;;4.68;1.63;;;17.80;99.90;;;;;;4998640;28;20032;-81
2023/06/30 06:44:50;;;;;;;6.57;1.45;;;17.70;99.90;;;;;;5001674;28;20022;-82
2023/06/30 06:47:53;;;;;;;4.45;1.70;;;17.70;99.90;;;;;;5001964;28;20018;-83
2023/06/30 06:50:22;;;;;;;5.22;1.50;;;17.80;99.90;;;;;;4996536;28;20474;-82
2023/06/30 06:52:48;;;;;;;5.90;1.63;;;17.90;99.90;;;;;;5013119;28;20502;-79
2023/06/30 06:55:15;;;;;;;4.55;1.70;;;18.00;99.90;;;;;;5015167;28;20052;-80
2023/06/30 06:57:41;;;;;;;7.25;1.55;;;18.10;99.90;;;;;;4998459;28;20018;-81
2023/06/30 07:00:10;;;;;;;10.77;1.80;;;18.20;99.90;;;;;;4996657;28;20619;-80
2023/06/30 07:02:36;;;;;;;6.40;1.65;;;18.20;99.90;;;;;;5018013;28;20076;-81
2023/06/30 07:05:04;;;;;;;4.15;1.45;;;18.30;99.90;;;;;;4997784;28;20097;-81
2023/06/30 07:07:50;;;;;;;4.78;1.42;;;18.40;99.90;;;;;;4997868;28;20036;-80
2023/06/30 07:10:16;;;;;;;8.60;1.27;;;18.40;99.90;;;;;;5023178;28;20050;-80
2023/06/30 07:12:52;;;;;;;9.13;4.80;;;18.50;99.90;;;;;;5015790;28;20064;-81
2023/06/30 07:15:18;;;;;;;8.02;1.70;;;18.50;99.90;;;;;;5004117;28;20034;-79
2023/06/30 07:17:49;;;;;;;4.75;1.48;;;18.40;99.90;;;;;;5002835;28;20616;-81
2023/06/30 07:20:18;;;;;;;5.97;1.13;;;18.50;99.90;;;;;;5001660;28;20029;-81
2023/06/30 07:22:43;;;;;;;6.68;1.42;;;18.50;99.90;;;;;;5155643;23;20045;-81
2023/06/30 07:25:12;;;;;;;4.45;2.15;;;18.50;99.90;;;;;;4976136;28;20014;-82
2023/06/30 07:27:46;;;;;;;5.75;2.05;;;18.60;99.90;;;;;;4972611;28;20033;-81
2023/06/30 07:30:16;;;;;;;21.77;7.72;;;18.50;99.90;;;;;;4994134;28;20137;-80
2023/06/30 07:33:12;;;;;;;;;;;;;;;;;;;;;
2023/06/30 07:35:56;;;;;;;6.90;1.50;;;18.70;99.90;;;;;;4976171;28;20026;-79
2023/06/30 07:38:50;;;;;;;;;;;;;;;;;;;;;
2023/06/30 07:41:39;;;;;;;8.43;1.38;;;18.90;99.90;;;;;;4981800;28;20587;-80
2023/06/30 07:44:13;;;;;;;5.15;1.58;;;19.10;99.90;;;;;;4974674;28;20568;-79
2023/06/30 07:46:52;;;;;;;4.15;1.10;;;19.20;99.90;;;;;;5000443;28;20041;-81
2023/06/30 07:49:59;;;;;;;3.67;1.00;;;19.40;99.90;;;;;;4994378;28;20042;-85
2023/06/30 07:53:08;;;;;;;1.92;1.15;;;19.50;99.90;;;;;;4968961;28;20097;-80
2023/06/30 07:55:36;;;;;;;209.68;90.00;;;19.80;99.90;;;;;;4983912;28;20026;-82
2023/06/30 07:58:22;;;;;;;8.05;1.38;;;20.20;99.90;;;;;;4983279;28;20027;-83
2023/06/30 08:00:53;;;;;;;4.97;1.42;;;20.20;99.90;;;;;;4982760;28;20054;-87
2023/06/30 08:03:48;;;;;;;3.75;1.10;;;20.40;99.90;;;;;;4978640;28;20036;-81
2023/06/30 08:06:22;;;;;;;8.95;1.40;;;20.70;99.90;;;;;;4944716;28;20171;-80
2023/06/30 08:08:51;;;;;;;5.13;1.55;;;20.90;99.90;;;;;;4974229;28;20658;-85
2023/06/30 08:11:29;;;;;;;;;;;;;;;;;;;;;
2023/06/30 08:14:22;;;;;;;9.63;2.20;;;20.90;99.90;;;;;;4975083;28;20047;-81
2023/06/30 08:16:48;;;;;;;5.88;2.05;;;21.00;99.90;;;;;;4978936;28;20057;-81
2023/06/30 08:19:13;;;;;;;5.10;1.45;;;21.00;99.90;;;;;;4977690;28;20054;-83
2023/06/30 08:21:39;;;;;;;2.45;1.13;;;21.00;99.90;;;;;;4979890;28;20022;-83
2023/06/30 08:24:07;;;;;;;1.67;0.85;;;21.10;99.90;;;;;;4976723;28;20202;-81
2023/06/30 08:26:33;;;;;;;7.38;1.20;;;21.20;99.90;;;;;;4977007;28;20026;-82
2023/06/30 08:28:58;;;;;;;3.78;1.13;;;21.40;99.90;;;;;;4977560;28;20062;-80
2023/06/30 08:31:24;;;;;;;3.33;1.25;;;21.40;99.90;;;;;;4977184;28;20498;-81
2023/06/30 08:33:50;;;;;;;5.10;1.52;;;21.70;99.50;;;;;;4980016;28;20442;-80
2023/06/30 08:36:15;;;;;;;25.55;10.32;;;22.10;98.40;;;;;;4977058;28;20023;-82
2023/06/30 08:38:41;;;;;;;16.63;7.18;;;22.30;99.20;;;;;;4972709;28;20381;-84
2023/06/30 08:41:07;;;;;;;6.68;1.83;;;22.70;98.30;;;;;;4978460;28;20030;-84
2023/06/30 08:43:36;;;;;;;3.47;1.73;;;23.10;96.90;;;;;;4976443;28;20035;-77
2023/06/30 08:46:32;;;;;;;3.35;1.70;;;23.80;96.60;;;;;;4976643;28;20102;-83
2023/06/30 08:52:27;;;;;;;7.10;3.95;;;24.50;95.00;;;;;;4894829;29;20187;-83
2023/06/30 08:54:54;;;;;;;2.97;1.77;;;25.00;90.70;;;;;;4974311;28;20124;-86
2023/06/30 08:57:21;;;;;;;4.28;1.63;;;24.40;90.50;;;;;;4988663;28;20605;-88
2023/06/30 08:59:52;;;;;;;4.30;1.55;;;24.10;91.10;;;;;;4979418;28;20149;-90
2023/06/30 09:02:29;;;;;;;;;;;;;;;;;;;;;
2023/06/30 09:05:08;;;;;;;2.28;1.52;;;24.30;90.00;;;;;;4980687;28;20031;-80
2023/06/30 09:07:48;;;;;;;5.40;1.33;;;23.60;88.00;;;;;;4998557;28;20038;-83
2023/06/30 09:10:15;;;;;;;3.90;1.35;;;22.90;90.40;;;;;;4989481;28;20120;-84
2023/06/30 09:12:59;;;;;;;2.60;1.77;;;23.00;91.40;;;;;;5001173;28;20253;-82
2023/06/30 09:18:32;;;;;;;4.40;1.52;;;24.00;90.40;;;;;;4980815;28;20041;-85
2023/06/30 09:21:08;;;;;;;2.45;1.60;;;24.50;88.80;;;;;;4972670;28;20042;-81
2023/06/30 09:23:37;;;;;;;1.63;1.20;;;25.10;87.80;;;;;;4972558;28;20038;-82
2023/06/30 09:26:24;;;;;;;;;;;;;;;;;;;;;
2023/06/30 09:29:19;;;;;;;2.58;1.45;;;25.90;82.70;;;;;;4971968;28;20034;-82
2023/06/30 09:32:00;;;;;;;;;;;;;;;;;;;;;
2023/06/30 09:34:34;;;;;;;4.00;1.70;;;25.50;79.40;;;;;;4978768;28;20030;-82
2023/06/30 09:37:13;;;;;;;;;;;;;;;;;;;;;
2023/06/30 09:39:59;;;;;;;5.60;1.83;;;25.90;80.60;;;;;;4978311;28;20031;-81
2023/06/30 09:42:35;;;;;;;4.25;1.70;;;26.50;74.30;;;;;;4988788;28;20096;-81
2023/06/30 09:45:02;;;;;;;4.55;1.83;;;26.60;75.90;;;;;;4983544;28;20467;-81
2023/06/30 09:47:28;;;;;;;2.53;1.25;;;26.40;77.40;;;;;;4973444;28;20035;-80
2023/06/30 09:50:06;;;;;;;2.92;1.60;;;26.00;77.20;;;;;;4974910;28;20045;-80
2023/06/30 09:52:43;;;;;;;2.10;1.60;;;25.80;77.10;;;;;;4979471;28;20174;-84
2023/06/30 09:55:47;;;;;;;3.97;2.00;;;25.80;75.30;;;;;;4980655;28;20026;-86
2023/06/30 09:58:31;;;;;;;4.07;1.83;;;25.50;77.10;;;;;;4976969;28;20042;-80
2023/06/30 10:01:19;;;;;;;;;;;;;;;;;;;;;
2023/06/30 10:03:54;;;;;;;4.80;1.63;;;26.00;74.70;;;;;;4980644;28;20037;-81
2023/06/30 10:06:50;;;;;;;6.43;2.45;;;25.70;73.70;;;;;;4996635;28;20137;-80
2023/06/30 10:09:29;;;;;;;2.40;1.38;;;25.80;77.40;;;;;;4972171;28;20093;-83
2023/06/30 10:12:25;;;;;;;;;;;;;;;;;;;;;
2023/06/30 10:14:58;;;;;;;2.40;1.48;;;26.20;69.90;;;;;;4986446;28;20491;-86
2023/06/30 10:17:34;;;;;;;;;;;;;;;;;;;;;
2023/06/30 10:20:02;;;;;;;5.68;3.17;;;27.20;72.00;;;;;;4977335;28;20030;-83
2023/06/30 10:22:28;;;;;;;5.25;2.88;;;26.90;69.70;;;;;;4977085;28;20816;-83
2023/06/30 10:24:57;;;;;;;4.40;2.03;;;26.80;71.10;;;;;;4970758;28;20073;-80
2023/06/30 10:27:23;;;;;;;3.03;1.80;;;26.60;71.50;;;;;;4977109;28;20291;-82
2023/06/30 10:29:52;;;;;;;1.90;1.50;;;26.40;73.60;;;;;;4987850;28;20528;-81
2023/06/30 10:32:20;;;;;;;3.35;1.80;;;26.20;72.30;;;;;;4979367;28;20034;-86
2023/06/30 10:34:47;;;;;;;5.57;2.00;;;26.80;70.60;;;;;;4981442;28;20077;-83
2023/06/30 10:37:14;;;;;;;5.10;1.83;;;27.50;68.20;;;;;;4975265;28;20466;-82
2023/06/30 10:39:43;;;;;;;2.65;1.45;;;27.90;64.60;;;;;;4968981;28;20026;-83
2023/06/30 10:42:11;;;;;;;7.45;1.83;;;28.00;67.80;;;;;;4978244;28;20470;-82
2023/06/30 10:44:38;;;;;;;6.10;1.83;;;28.60;66.30;;;;;;4978162;28;20010;-83
2023/06/30 10:47:10;;;;;;;5.85;2.20;;;28.80;62.40;;;;;;4976535;28;20034;-82
2023/06/30 10:49:38;;;;;;;3.42;1.98;;;28.00;63.40;;;;;;4973783;28;20026;-81
2023/06/30 10:52:07;;;;;;;5.25;1.98;;;27.30;65.40;;;;;;4976119;28;20085;-80
2023/06/30 10:55:09;;;;;;;5.18;1.80;;;26.80;64.50;;;;;;4978493;28;20136;-83
2023/06/30 10:58:01;;;;;;;4.85;1.60;;;26.10;66.40;;;;;;4991213;28;20476;-82
2023/06/30 11:00:54;;;;;;;7.72;2.20;;;26.00;67.60;;;;;;4966628;28;20154;-82
2023/06/30 11:03:26;;;;;;;7.00;2.03;;;26.20;68.00;;;;;;4979129;28;20576;-79
2023/06/30 11:06:20;;;;;;;2.17;1.77;;;26.00;67.80;;;;;;4982432;28;20023;-81
2023/06/30 11:12:38;;;;;;;2.30;1.30;;;25.50;67.90;;;;;;4896280;29;19911;-85
2023/06/30 11:18:28;;;;;;;7.50;1.70;;;25.00;68.00;;;;;;4932270;29;20028;-87
2023/06/30 11:24:36;;;;;;;3.15;1.42;;;24.00;69.70;;;;;;4913584;28;20028;-85
2023/06/30 11:27:23;;;;;;;4.15;1.63;;;23.80;70.80;;;;;;4933856;28;20043;-84
2023/06/30 11:30:03;;;;;;;;;;;;;;;;;;;;;
2023/06/30 11:32:50;;;;;;;2.97;1.95;;;24.90;68.80;;;;;;4927330;29;20028;-82
2023/06/30 11:35:45;;;;;;;6.50;1.60;;;25.10;69.40;;;;;;4924662;29;20051;-82
2023/06/30 11:38:21;;;;;;;2.90;1.65;;;25.90;68.30;;;;;;4927162;29;20175;-94
2023/06/30 11:40:49;;;;;;;3.38;1.75;;;25.80;66.90;;;;;;4928928;29;20031;-87
2023/06/30 11:43:40;;;;;;;9.82;2.10;;;25.80;67.10;;;;;;4909247;29;20035;-84
2023/06/30 11:46:17;;;;;;;;;;;;;;;;;;;;;
2023/06/30 11:48:47;;;;;;;4.47;1.88;;;25.90;66.60;;;;;;4920299;29;20420;-84
2023/06/30 11:51:49;;;;;;;;;;;;;;;;;;;;;
2023/06/30 11:54:35;;;;;;;3.30;1.98;;;26.50;65.00;;;;;;4930038;28;20323;-86
2023/06/30 12:00:44;;;;;;;1.88;1.60;;;28.10;61.00;;;;;;4973620;28;20041;-82
2023/06/30 12:03:39;;;;;;;3.80;2.15;;;28.30;59.10;;;;;;4970939;28;20128;-81
2023/06/30 12:06:08;;;;;;;2.67;2.03;;;27.90;61.60;;;;;;4984204;28;20408;-85
2023/06/30 12:08:57;;;;;;;4.95;2.00;;;27.80;59.50;;;;;;4979415;28;20017;-85
2023/06/30 12:11:32;;;;;;;7.97;2.63;;;27.90;60.60;;;;;;4963020;28;20116;-80
2023/06/30 12:14:54;;;;;;;6.00;2.20;;;27.90;60.10;;;;;;4970225;28;20072;-84
2023/06/30 12:17:20;;;;;;;5.30;2.65;;;27.90;60.40;;;;;;4964214;28;20443;-79
2023/06/30 12:19:46;;;;;;;5.45;1.92;;;27.60;60.20;;;;;;4975777;28;20026;-81
2023/06/30 12:22:12;;;;;;;3.67;2.05;;;28.20;61.20;;;;;;4979791;28;20141;-82
2023/06/30 12:24:42;;;;;;;5.97;1.83;;;28.20;57.70;;;;;;4985238;28;20466;-79
2023/06/30 12:27:10;;;;;;;2.50;1.60;;;27.90;59.10;;;;;;4980593;28;20532;-79
2023/06/30 12:29:48;;;;;;;8.15;2.40;;;27.60;58.20;;;;;;4985608;28;20085;-80
2023/06/30 12:32:22;;;;;;;4.50;1.83;;;27.40;59.80;;;;;;4979939;28;20055;-81
2023/06/30 12:34:51;;;;;;;4.32;1.83;;;27.20;60.70;;;;;;4983372;28;20031;-81
2023/06/30 12:37:19;;;;;;;5.55;1.80;;;26.90;61.80;;;;;;4984165;28;20073;-87
2023/06/30 12:40:27;;;;;;;5.38;1.83;;;26.90;62.40;;;;;;4988335;28;20027;-85
2023/06/30 12:43:26;;;;;;;3.25;1.88;;;26.30;62.50;;;;;;4980819;28;20099;-82
2023/06/30 12:48:58;;;;;;;4.03;2.03;;;26.20;61.70;;;;;;4933327;28;20042;-81
2023/06/30 12:51:24;;;;;;;4.22;1.92;;;25.90;62.90;;;;;;4967740;28;20486;-81
2023/06/30 12:54:03;;;;;;;;;;;;;;;;;;;;;
2023/06/30 12:56:47;;;;;;;4.85;1.70;;;26.10;64.20;;;;;;4980860;28;20215;-80
2023/06/30 12:59:26;;;;;;;7.32;1.90;;;26.80;64.90;;;;;;4997664;28;20038;-84
2023/06/30 13:02:12;;;;;;;5.32;2.05;;;26.80;59.50;;;;;;4975066;28;20423;-81
2023/06/30 13:04:46;;;;;;;3.03;1.90;;;27.10;60.30;;;;;;4984429;28;20057;-84
2023/06/30 13:07:21;;;;;;;5.32;1.95;;;27.40;59.70;;;;;;4977849;28;20138;-80
2023/06/30 13:09:56;;;;;;;3.72;2.00;;;27.70;59.10;;;;;;4982252;28;20023;-83
2023/06/30 13:12:42;;;;;;;2.13;1.67;;;27.40;59.60;;;;;;4989127;28;20453;-80
2023/06/30 13:15:11;;;;;;;7.30;2.55;;;27.50;59.70;;;;;;4983222;28;20061;-80
2023/06/30 13:17:57;;;;;;;3.70;2.05;;;27.10;59.30;;;;;;4981843;28;20038;-83
2023/06/30 13:20:31;;;;;;;4.55;2.10;;;27.10;59.70;;;;;;4975842;28;20041;-80
2023/06/30 13:23:05;;;;;;;4.43;2.38;;;27.70;59.70;;;;;;4983258;28;20101;-82
2023/06/30 13:25:30;;;;;;;8.75;2.17;;;28.00;58.30;;;;;;4980365;28;20030;-85
2023/06/30 13:27:59;;;;;;;4.63;2.05;;;28.00;57.20;;;;;;4976463;28;20030;-80
2023/06/30 13:30:29;;;;;;;5.50;2.58;;;27.60;57.90;;;;;;4975236;28;20026;-80
2023/06/30 13:32:55;;;;;;;1.92;1.75;;;27.20;57.60;;;;;;4978150;28;20026;-79
2023/06/30 13:35:28;;;;;;;2.47;1.80;;;27.20;59.20;;;;;;4979679;28;20053;-80
2023/06/30 13:37:56;;;;;;;6.18;2.00;;;27.30;58.00;;;;;;4984664;28;20022;-80
2023/06/30 13:40:23;;;;;;;2.95;2.03;;;27.40;58.90;;;;;;4996972;28;20035;-81
2023/06/30 13:42:49;;;;;;;3.20;1.85;;;27.60;58.50;;;;;;4999007;28;20038;-79
2023/06/30 13:45:19;;;;;;;6.20;2.08;;;27.70;55.70;;;;;;4993181;28;20113;-79